Time;durP1;ratioP1;P1;durP2;ratioP2;P2;SDS_P1;SDS_P2;PMS_P1;PMS_P2;Temp;Humidity;BMP_temperature;BMP_pressure;BME280_temperature;BME280_humidity;BME280_pressure;Samples;Min_cycle;Max_cycle;Signal;HPM_P1;HPM_P2
2022/03/05 00:00:06;;;;;;;18.83;9.70;;;26.20;99.90;;;;;;4917602;29;20185;-68
2022/03/05 00:02:33;;;;;;;19.20;8.90;;;26.20;99.90;;;;;;4917243;29;20334;-68
2022/03/05 00:05:01;;;;;;;17.43;9.53;;;25.80;99.90;;;;;;4917963;29;20177;-68
2022/03/05 00:07:28;;;;;;;15.10;9.00;;;25.60;99.90;;;;;;4916347;29;20192;-68
2022/03/05 00:09:56;;;;;;;18.53;9.87;;;25.40;99.90;;;;;;4916075;29;20182;-68
2022/03/05 00:12:24;;;;;;;17.43;9.77;;;25.40;99.90;;;;;;4916366;29;20321;-68
2022/03/05 00:14:51;;;;;;;15.50;9.20;;;25.40;99.90;;;;;;4916354;29;20757;-68
2022/03/05 00:17:18;;;;;;;18.43;10.13;;;25.30;99.90;;;;;;4916021;29;20330;-68
2022/03/05 00:19:46;;;;;;;18.43;9.67;;;25.30;99.90;;;;;;4916282;29;20182;-68
2022/03/05 00:22:13;;;;;;;20.13;10.57;;;25.10;99.90;;;;;;4917188;29;20174;-68
2022/03/05 00:24:40;;;;;;;19.83;10.93;;;25.10;99.90;;;;;;4918115;29;20623;-68
2022/03/05 00:27:08;;;;;;;18.37;10.03;;;25.00;99.90;;;;;;4917262;29;20184;-68
2022/03/05 00:29:35;;;;;;;18.57;9.93;;;25.00;99.90;;;;;;4917588;29;20209;-68
2022/03/05 00:32:03;;;;;;;16.07;9.67;;;25.10;99.90;;;;;;4917566;29;20205;-68
2022/03/05 00:34:30;;;;;;;14.50;8.70;;;25.20;99.90;;;;;;4917170;29;20631;-68
2022/03/05 00:36:57;;;;;;;16.43;8.73;;;25.20;99.90;;;;;;4917269;29;20604;-68
2022/03/05 00:39:25;;;;;;;18.83;9.50;;;25.20;99.90;;;;;;4917478;29;20181;-68
2022/03/05 00:41:52;;;;;;;17.33;9.57;;;25.30;99.90;;;;;;4917048;29;20703;-68
2022/03/05 00:44:19;;;;;;;16.53;10.33;;;25.30;99.90;;;;;;4917268;29;20181;-69
2022/03/05 00:46:47;;;;;;;17.07;9.57;;;25.40;99.90;;;;;;4915971;29;20286;-69
2022/03/05 00:49:14;;;;;;;22.93;11.47;;;25.40;99.90;;;;;;4917036;29;20189;-68
2022/03/05 00:51:42;;;;;;;18.27;9.77;;;25.40;99.90;;;;;;4917241;29;20649;-68
2022/03/05 00:54:09;;;;;;;20.20;9.80;;;25.40;99.90;;;;;;4916942;29;20181;-68
2022/03/05 00:56:37;;;;;;;17.93;9.40;;;25.40;99.90;;;;;;4898152;29;20249;-68
2022/03/05 00:59:04;;;;;;;19.00;10.07;;;25.50;99.90;;;;;;4916167;29;20216;-68
2022/03/05 01:01:31;;;;;;;20.50;10.33;;;25.40;99.90;;;;;;4916861;29;20233;-69
2022/03/05 01:03:59;;;;;;;18.30;10.10;;;25.40;99.90;;;;;;4917044;29;20181;-68
2022/03/05 01:06:30;;;;;;;22.43;11.17;;;25.60;99.90;;;;;;4917269;29;20178;-68
2022/03/05 01:08:59;;;;;;;15.27;9.47;;;26.00;99.90;;;;;;4916698;29;20684;-68
2022/03/05 01:11:27;;;;;;;16.97;9.73;;;26.50;99.90;;;;;;4916442;29;20577;-69
2022/03/05 01:13:54;;;;;;;17.57;10.43;;;27.10;99.90;;;;;;4916752;29;20189;-68
2022/03/05 01:16:22;;;;;;;16.17;9.73;;;27.40;99.90;;;;;;4916462;29;20197;-68
2022/03/05 01:18:49;;;;;;;18.00;9.37;;;27.80;99.90;;;;;;4916662;29;20305;-68
2022/03/05 01:21:16;;;;;;;15.07;8.77;;;27.60;99.90;;;;;;4916371;29;20177;-68
2022/03/05 01:23:44;;;;;;;15.90;9.40;;;27.50;99.90;;;;;;4916679;29;20292;-68
2022/03/05 01:26:11;;;;;;;13.77;8.47;;;27.20;99.90;;;;;;4916282;29;20189;-68
2022/03/05 01:28:38;;;;;;;16.70;9.00;;;27.10;99.90;;;;;;4915563;29;20177;-68
2022/03/05 01:31:06;;;;;;;13.57;8.67;;;27.20;99.90;;;;;;4916766;29;20272;-68
2022/03/05 01:33:33;;;;;;;13.37;8.40;;;27.00;99.90;;;;;;4916363;29;20185;-68
2022/03/05 01:36:00;;;;;;;13.67;7.67;;;27.00;99.90;;;;;;4916851;29;20539;-68
2022/03/05 01:38:28;;;;;;;15.30;8.73;;;27.00;99.90;;;;;;4915718;29;20217;-67
2022/03/05 01:40:55;;;;;;;16.63;9.00;;;27.10;99.90;;;;;;4915931;29;20622;-69
2022/03/05 01:43:23;;;;;;;18.67;9.37;;;27.20;99.90;;;;;;4916135;29;20188;-69
2022/03/05 01:45:50;;;;;;;15.80;9.63;;;27.50;99.90;;;;;;4916546;29;20177;-68
2022/03/05 01:48:17;;;;;;;14.13;8.60;;;27.70;99.90;;;;;;4916206;29;20184;-69
2022/03/05 01:50:45;;;;;;;15.20;8.93;;;27.60;99.90;;;;;;4916402;29;20366;-69
2022/03/05 01:53:12;;;;;;;15.93;9.27;;;27.70;99.90;;;;;;4916361;29;20245;-70
2022/03/05 01:55:39;;;;;;;16.00;9.10;;;27.80;99.90;;;;;;4915077;29;20237;-69
2022/03/05 01:58:07;;;;;;;11.73;8.77;;;28.20;99.90;;;;;;4915691;29;20233;-69
2022/03/05 02:00:34;;;;;;;16.77;10.13;;;28.10;99.90;;;;;;4916298;29;20697;-69
2022/03/05 02:03:01;;;;;;;16.33;9.53;;;28.30;99.90;;;;;;4916521;29;20272;-69
2022/03/05 02:05:29;;;;;;;18.80;10.13;;;28.50;99.90;;;;;;4915054;29;20185;-69
2022/03/05 02:07:56;;;;;;;13.33;9.37;;;28.50;99.90;;;;;;4916187;29;20188;-69
2022/03/05 02:10:24;;;;;;;16.03;9.80;;;28.30;99.90;;;;;;4916251;29;20518;-69
2022/03/05 02:12:51;;;;;;;16.47;10.53;;;28.60;99.90;;;;;;4916664;29;20184;-69
2022/03/05 02:15:18;;;;;;;18.70;10.03;;;28.50;99.90;;;;;;4916442;29;20220;-69
2022/03/05 02:17:46;;;;;;;14.90;9.47;;;28.70;99.90;;;;;;4916026;29;20221;-69
2022/03/05 02:20:13;;;;;;;14.97;9.43;;;28.80;99.90;;;;;;4916076;29;20224;-69
2022/03/05 02:22:41;;;;;;;14.70;9.70;;;28.20;99.90;;;;;;4917296;29;20241;-69
2022/03/05 02:25:09;;;;;;;15.27;9.93;;;27.70;99.90;;;;;;4919794;29;20181;-69
2022/03/05 02:27:36;;;;;;;13.17;9.30;;;27.80;99.90;;;;;;4919666;29;20186;-69
2022/03/05 02:30:04;;;;;;;16.90;9.63;;;27.80;99.90;;;;;;4919480;29;20193;-69
2022/03/05 02:32:31;;;;;;;15.17;10.40;;;28.00;99.90;;;;;;4919597;29;20264;-69
2022/03/05 02:34:59;;;;;;;17.07;10.37;;;28.20;99.90;;;;;;4919333;29;20241;-69
2022/03/05 02:37:26;;;;;;;15.07;10.17;;;28.30;99.90;;;;;;4919351;29;20205;-69
2022/03/05 02:39:53;;;;;;;16.10;10.27;;;28.50;99.90;;;;;;4919798;29;20557;-69
2022/03/05 02:42:21;;;;;;;17.77;9.60;;;28.50;99.90;;;;;;4919387;29;20177;-69
2022/03/05 02:44:48;;;;;;;16.53;10.10;;;28.20;99.90;;;;;;4919575;29;20666;-68
2022/03/05 02:47:15;;;;;;;16.90;10.57;;;27.90;99.90;;;;;;4919718;29;20177;-69
2022/03/05 02:49:43;;;;;;;12.90;9.20;;;28.20;99.90;;;;;;4919054;29;20185;-69
2022/03/05 02:52:10;;;;;;;14.00;9.90;;;28.00;99.90;;;;;;4919307;29;20184;-69
2022/03/05 02:54:37;;;;;;;14.20;9.17;;;27.90;99.90;;;;;;4919057;29;20211;-69
2022/03/05 02:57:05;;;;;;;12.87;8.97;;;27.70;99.90;;;;;;4918911;29;20232;-68
2022/03/05 02:59:32;;;;;;;11.03;8.53;;;27.70;99.90;;;;;;4919211;29;20177;-69
2022/03/05 03:01:59;;;;;;;15.37;8.03;;;27.70;99.90;;;;;;4918792;29;20188;-69
2022/03/05 03:04:27;;;;;;;15.23;8.83;;;27.70;99.90;;;;;;4919008;29;20185;-69
2022/03/05 03:06:54;;;;;;;14.77;8.70;;;27.90;99.90;;;;;;4917120;29;20186;-69
2022/03/05 03:09:21;;;;;;;16.23;9.10;;;27.90;99.90;;;;;;4919280;29;20188;-69
2022/03/05 03:11:49;;;;;;;12.73;9.13;;;28.20;99.90;;;;;;4918795;29;20607;-69
2022/03/05 03:14:16;;;;;;;15.53;8.27;;;28.30;99.90;;;;;;4917570;29;20192;-69
2022/03/05 03:16:44;;;;;;;12.53;8.10;;;28.20;99.90;;;;;;4919035;29;20589;-69
2022/03/05 03:19:11;;;;;;;12.40;8.20;;;28.20;99.90;;;;;;4918637;29;20324;-69
2022/03/05 03:21:38;;;;;;;12.87;7.97;;;28.00;99.90;;;;;;4918864;29;20216;-68
2022/03/05 03:24:06;;;;;;;15.73;8.50;;;28.20;99.90;;;;;;4918582;29;20197;-69
2022/03/05 03:26:33;;;;;;;13.43;8.47;;;28.10;99.90;;;;;;4918403;29;20190;-69
2022/03/05 03:29:00;;;;;;;14.97;9.17;;;28.30;99.90;;;;;;4918210;29;20722;-69
2022/03/05 03:31:28;;;;;;;11.53;7.90;;;28.20;99.90;;;;;;4918583;29;20193;-69
2022/03/05 03:33:55;;;;;;;11.90;7.83;;;28.10;99.90;;;;;;4918185;29;20177;-69
2022/03/05 03:36:22;;;;;;;10.53;7.67;;;28.10;99.90;;;;;;4918675;29;20177;-69
2022/03/05 03:38:49;;;;;;;12.20;8.70;;;28.00;99.90;;;;;;4916789;29;20693;-69
2022/03/05 03:41:17;;;;;;;15.47;8.73;;;27.90;99.90;;;;;;4918527;29;20177;-69
2022/03/05 03:43:44;;;;;;;17.00;8.97;;;28.00;99.90;;;;;;4917862;29;20670;-69
2022/03/05 03:46:12;;;;;;;14.23;8.80;;;28.30;99.90;;;;;;4917615;29;20646;-69
2022/03/05 03:48:39;;;;;;;15.67;8.70;;;28.30;99.90;;;;;;4917463;29;20622;-69
2022/03/05 03:51:07;;;;;;;15.67;7.27;;;28.30;99.90;;;;;;4917672;29;20189;-69
2022/03/05 03:53:34;;;;;;;14.47;8.47;;;28.70;99.90;;;;;;4917928;29;20196;-69
2022/03/05 03:56:01;;;;;;;14.13;8.27;;;29.10;99.90;;;;;;4917892;29;20200;-70
2022/03/05 03:58:29;;;;;;;15.43;8.20;;;29.10;99.90;;;;;;4918261;29;20232;-69
2022/03/05 04:00:56;;;;;;;13.03;8.13;;;29.50;99.90;;;;;;4917607;29;20265;-69
2022/03/05 04:03:23;;;;;;;14.03;8.40;;;29.70;99.90;;;;;;4918249;29;20184;-69
2022/03/05 04:05:50;;;;;;;14.97;8.20;;;29.70;99.90;;;;;;4917170;29;20190;-69
2022/03/05 04:11:04;;;;;;;11.60;8.37;;;29.40;99.90;;;;;;4917461;29;20193;-70
2022/03/05 04:13:31;;;;;;;10.97;7.83;;;29.10;99.90;;;;;;4917840;29;20638;-70
2022/03/05 04:15:58;;;;;;;11.37;8.10;;;28.90;99.90;;;;;;4917892;29;20550;-68
2022/03/05 04:18:26;;;;;;;12.93;8.97;;;29.20;99.90;;;;;;4917435;29;20276;-69
2022/03/05 04:20:53;;;;;;;12.97;8.90;;;29.30;99.90;;;;;;4917461;29;20189;-69
2022/03/05 04:23:20;;;;;;;14.60;8.77;;;29.80;99.90;;;;;;4917229;29;20201;-70
2022/03/05 04:25:47;;;;;;;14.23;8.93;;;29.80;99.90;;;;;;4917784;29;20178;-70
2022/03/05 04:28:15;;;;;;;15.57;8.30;;;30.20;99.90;;;;;;4917255;29;20264;-69
2022/03/05 04:30:43;;;;;;;13.97;9.43;;;29.40;99.90;;;;;;4917675;29;20542;-68
2022/03/05 04:33:11;;;;;;;15.27;9.97;;;29.10;99.90;;;;;;4916203;29;20594;-70
2022/03/05 04:35:38;;;;;;;14.87;9.03;;;29.10;99.90;;;;;;4917278;29;20563;-69
2022/03/05 04:38:06;;;;;;;16.17;9.53;;;28.80;99.90;;;;;;4917165;29;20243;-69
2022/03/05 04:40:34;;;;;;;16.20;9.70;;;29.00;99.90;;;;;;4916622;29;20197;-69
2022/03/05 04:43:01;;;;;;;12.53;9.13;;;29.00;99.90;;;;;;4916452;29;20193;-69
2022/03/05 04:45:29;;;;;;;13.90;9.33;;;28.90;99.90;;;;;;4915348;29;20177;-69
2022/03/05 04:47:56;;;;;;;13.13;9.10;;;29.20;99.90;;;;;;4917451;29;20189;-69
2022/03/05 04:50:23;;;;;;;16.60;8.67;;;29.10;99.90;;;;;;4917028;29;20189;-70
2022/03/05 04:52:52;;;;;;;11.13;8.87;;;28.80;99.90;;;;;;4917549;29;20185;-70
2022/03/05 04:55:19;;;;;;;12.80;8.57;;;29.10;99.90;;;;;;4916909;29;20181;-70
2022/03/05 04:57:46;;;;;;;12.70;8.13;;;29.30;99.90;;;;;;4917024;29;20721;-70
2022/03/05 05:00:15;;;;;;;12.93;8.77;;;28.80;99.90;;;;;;4916827;29;20538;-68
2022/03/05 05:02:43;;;;;;;12.03;8.53;;;28.30;99.90;;;;;;4910807;29;20557;-70
2022/03/05 05:05:10;;;;;;;10.83;8.17;;;28.10;99.90;;;;;;4914771;29;20192;-70
2022/03/05 05:07:38;;;;;;;15.50;8.30;;;27.90;99.90;;;;;;4917193;29;20280;-71
2022/03/05 05:10:06;;;;;;;16.87;8.13;;;28.00;99.90;;;;;;4915000;29;20775;-68
2022/03/05 05:12:33;;;;;;;12.23;8.53;;;28.10;99.90;;;;;;4915865;29;20272;-69
2022/03/05 05:15:01;;;;;;;12.30;9.50;;;28.10;99.90;;;;;;4916463;29;20181;-69
2022/03/05 05:17:28;;;;;;;12.67;8.40;;;27.90;99.90;;;;;;4898033;29;20699;-69
2022/03/05 05:19:55;;;;;;;12.70;8.20;;;27.80;99.90;;;;;;4908687;29;20193;-69
2022/03/05 05:22:23;;;;;;;12.87;8.97;;;27.80;99.90;;;;;;4916881;29;20184;-70
2022/03/05 05:24:50;;;;;;;13.10;8.23;;;28.10;99.90;;;;;;4917097;29;20264;-70
2022/03/05 05:27:17;;;;;;;13.30;7.87;;;28.40;99.90;;;;;;4916691;29;20185;-69
2022/03/05 05:29:45;;;;;;;11.23;7.80;;;28.60;99.90;;;;;;4916764;29;20518;-69
2022/03/05 05:32:12;;;;;;;14.23;7.77;;;28.30;99.90;;;;;;4916781;29;20581;-69
2022/03/05 05:34:43;;;;;;;11.67;7.40;;;28.10;99.90;;;;;;4916770;29;20229;-70
2022/03/05 05:37:11;;;;;;;11.47;7.30;;;27.60;99.90;;;;;;4916483;29;20182;-69
2022/03/05 05:39:38;;;;;;;15.50;7.63;;;27.50;99.90;;;;;;4916781;29;20213;-68
2022/03/05 05:42:06;;;;;;;12.03;7.57;;;27.60;99.90;;;;;;4916870;29;20639;-70
2022/03/05 05:44:33;;;;;;;16.63;8.90;;;27.40;99.90;;;;;;4915210;29;20979;-70
2022/03/05 05:47:00;;;;;;;11.93;8.17;;;27.50;99.90;;;;;;4916027;29;20177;-69
2022/03/05 05:49:28;;;;;;;12.77;7.77;;;27.40;99.90;;;;;;4916845;29;20256;-70
2022/03/05 05:51:55;;;;;;;13.00;6.70;;;27.50;99.90;;;;;;4916227;29;20237;-70
2022/03/05 05:54:23;;;;;;;9.87;6.47;;;27.40;99.90;;;;;;4916255;29;20189;-70
2022/03/05 05:56:51;;;;;;;13.20;7.67;;;27.30;99.90;;;;;;4917409;29;20288;-69
2022/03/05 05:59:19;;;;;;;12.67;7.17;;;27.30;99.90;;;;;;4920148;29;20756;-70
2022/03/05 06:01:47;;;;;;;12.13;7.23;;;27.30;99.90;;;;;;4920327;29;20190;-70
2022/03/05 06:04:15;;;;;;;12.30;6.93;;;27.30;99.90;;;;;;4920503;29;20177;-70
2022/03/05 06:06:42;;;;;;;13.93;6.13;;;27.10;99.90;;;;;;4919741;29;20209;-70
2022/03/05 06:09:10;;;;;;;9.43;6.20;;;27.00;99.90;;;;;;4920148;29;20185;-69
2022/03/05 06:11:38;;;;;;;10.60;6.80;;;27.00;99.90;;;;;;4920131;29;20196;-69
2022/03/05 06:14:06;;;;;;;12.80;6.13;;;27.10;99.90;;;;;;4919443;29;20280;-69
2022/03/05 06:16:34;;;;;;;11.57;5.77;;;27.10;99.90;;;;;;4919215;29;20177;-69
2022/03/05 06:19:02;;;;;;;13.27;5.63;;;27.10;99.90;;;;;;4919539;29;20578;-69
2022/03/05 06:21:30;;;;;;;9.47;5.40;;;27.00;99.90;;;;;;4919657;29;20617;-70
2022/03/05 06:23:58;;;;;;;9.23;5.87;;;27.00;99.90;;;;;;4919923;29;20185;-70
2022/03/05 06:26:27;;;;;;;12.87;5.67;;;26.90;99.90;;;;;;4918673;29;20240;-70
2022/03/05 06:28:55;;;;;;;12.00;5.73;;;26.80;99.90;;;;;;4916971;29;20540;-70
2022/03/05 06:31:23;;;;;;;8.20;4.93;;;26.80;99.90;;;;;;4916743;29;20186;-70
2022/03/05 06:33:50;;;;;;;14.53;5.83;;;26.80;99.90;;;;;;4919106;29;20529;-70
2022/03/05 06:36:18;;;;;;;13.67;5.47;;;26.70;99.90;;;;;;4918615;29;20220;-70
2022/03/05 06:38:46;;;;;;;12.33;6.03;;;26.70;99.90;;;;;;4918932;29;20360;-69
2022/03/05 06:41:14;;;;;;;12.50;6.57;;;26.70;99.90;;;;;;4919085;29;20180;-70
2022/03/05 06:43:42;;;;;;;11.10;6.50;;;26.60;99.90;;;;;;4916348;29;20182;-70
2022/03/05 06:46:09;;;;;;;16.30;6.70;;;26.60;99.90;;;;;;4918662;29;20178;-70
2022/03/05 06:48:37;;;;;;;13.83;6.47;;;26.60;99.90;;;;;;4916702;29;20198;-71
2022/03/05 06:51:05;;;;;;;13.10;6.43;;;26.60;99.90;;;;;;4919477;29;20178;-70
2022/03/05 06:53:33;;;;;;;13.30;6.67;;;26.60;99.90;;;;;;4918781;29;20820;-69
2022/03/05 06:56:00;;;;;;;8.80;5.50;;;26.60;99.90;;;;;;4918006;29;20181;-70
2022/03/05 06:58:28;;;;;;;9.30;5.27;;;26.60;99.90;;;;;;4918990;29;20217;-70
2022/03/05 07:00:56;;;;;;;12.03;5.87;;;26.50;99.90;;;;;;4919203;29;20699;-69
2022/03/05 07:03:23;;;;;;;8.83;4.93;;;26.40;99.90;;;;;;4917366;29;20219;-70
2022/03/05 07:05:51;;;;;;;11.37;5.23;;;26.40;99.90;;;;;;4919031;29;20198;-71
2022/03/05 07:08:19;;;;;;;12.27;5.53;;;26.30;99.90;;;;;;4918391;29;20188;-71
2022/03/05 07:10:46;;;;;;;9.70;4.90;;;26.30;99.90;;;;;;4918926;29;20192;-71
2022/03/05 07:13:14;;;;;;;8.67;5.20;;;26.20;99.90;;;;;;4919002;29;20181;-71
2022/03/05 07:15:42;;;;;;;12.37;5.53;;;26.20;99.90;;;;;;4918686;29;20197;-72
2022/03/05 07:18:10;;;;;;;12.60;5.23;;;26.10;99.90;;;;;;4918830;29;20259;-71
2022/03/05 07:20:38;;;;;;;16.37;6.10;;;26.10;99.90;;;;;;4918720;29;20193;-71
2022/03/05 07:23:06;;;;;;;10.93;5.13;;;26.00;99.90;;;;;;4918929;29;20181;-70
2022/03/05 07:25:39;;;;;;;9.67;5.20;;;25.90;99.90;;;;;;4918064;29;20603;-69
2022/03/05 07:28:11;;;;;;;9.13;5.30;;;25.80;99.90;;;;;;4918501;29;20193;-69
2022/03/05 07:30:42;;;;;;;12.30;5.10;;;25.80;99.90;;;;;;4918623;29;20252;-69
2022/03/05 07:33:10;;;;;;;5.80;4.63;;;25.70;99.90;;;;;;4918609;29;20181;-69
2022/03/05 07:35:38;;;;;;;11.40;4.73;;;25.70;99.90;;;;;;4916853;29;20244;-68
2022/03/05 07:38:06;;;;;;;10.53;4.87;;;25.60;99.90;;;;;;4918089;29;20261;-70
2022/03/05 07:40:34;;;;;;;9.20;4.43;;;25.60;99.90;;;;;;4917520;29;20703;-69
2022/03/05 07:43:02;;;;;;;12.43;4.90;;;25.60;99.90;;;;;;4929254;29;20173;-69
2022/03/05 07:45:29;;;;;;;13.73;4.77;;;25.50;99.90;;;;;;4927976;29;20669;-70
2022/03/05 07:47:57;;;;;;;8.23;4.70;;;25.50;99.90;;;;;;4907414;29;20189;-69
2022/03/05 07:50:25;;;;;;;9.63;4.63;;;25.50;99.90;;;;;;4899490;29;20182;-70
2022/03/05 07:52:53;;;;;;;13.13;5.53;;;25.50;99.90;;;;;;4899287;29;20186;-70
2022/03/05 07:55:20;;;;;;;9.83;4.93;;;25.50;99.90;;;;;;4899419;29;20197;-70
2022/03/05 07:57:49;;;;;;;12.27;5.13;;;25.40;99.90;;;;;;4917168;29;20237;-69
2022/03/05 08:00:17;;;;;;;11.33;4.60;;;25.40;99.90;;;;;;4917915;29;20268;-70
2022/03/05 08:02:45;;;;;;;10.50;4.50;;;25.30;99.90;;;;;;4918429;29;20184;-69
2022/03/05 08:05:12;;;;;;;9.70;4.30;;;25.20;99.90;;;;;;4918625;29;20184;-69
2022/03/05 08:07:40;;;;;;;14.23;4.87;;;25.10;99.90;;;;;;4917127;29;20268;-69
2022/03/05 08:10:08;;;;;;;9.57;3.90;;;25.10;99.90;;;;;;4916511;29;20187;-70
2022/03/05 08:12:37;;;;;;;5.63;3.60;;;25.10;99.90;;;;;;4917504;29;20527;-70
2022/03/05 08:15:06;;;;;;;9.67;3.77;;;25.00;99.90;;;;;;4917600;29;20186;-69
2022/03/05 08:17:33;;;;;;;14.37;3.53;;;25.00;99.90;;;;;;4917562;29;20209;-69
2022/03/05 08:20:01;;;;;;;10.37;3.20;;;25.00;99.90;;;;;;4915722;29;20622;-70
2022/03/05 08:22:36;;;;;;;9.73;3.20;;;25.00;99.90;;;;;;4917861;29;20654;-68
2022/03/05 08:25:04;;;;;;;9.10;3.10;;;24.90;99.90;;;;;;4917404;29;20216;-68
2022/03/05 08:27:31;;;;;;;8.33;2.57;;;24.80;99.90;;;;;;4917461;29;20192;-69
2022/03/05 08:29:59;;;;;;;5.90;2.13;;;24.80;99.90;;;;;;4917302;29;20193;-69
2022/03/05 08:32:27;;;;;;;6.57;2.07;;;24.80;99.90;;;;;;4917048;29;20262;-68
2022/03/05 08:34:54;;;;;;;7.87;2.37;;;24.80;99.90;;;;;;4915718;29;20552;-70
2022/03/05 08:37:23;;;;;;;6.83;2.50;;;24.70;99.90;;;;;;4916195;29;20728;-69
2022/03/05 08:39:50;;;;;;;6.43;2.47;;;24.70;99.90;;;;;;4914989;29;20647;-69
2022/03/05 08:42:18;;;;;;;7.57;2.40;;;24.60;99.90;;;;;;4916914;29;20731;-69
2022/03/05 08:44:46;;;;;;;8.97;2.43;;;24.60;99.90;;;;;;4916953;29;20181;-68
2022/03/05 08:47:13;;;;;;;8.00;2.63;;;24.60;99.90;;;;;;4916594;29;20214;-69
2022/03/05 08:49:41;;;;;;;9.87;2.23;;;24.60;99.90;;;;;;4916877;29;20212;-69
2022/03/05 08:52:09;;;;;;;10.97;2.63;;;24.60;99.90;;;;;;4917388;29;20658;-70
2022/03/05 08:54:37;;;;;;;12.03;2.23;;;24.60;99.90;;;;;;4917105;29;20177;-68
2022/03/05 08:57:06;;;;;;;8.03;2.00;;;24.50;99.90;;;;;;4917037;29;20307;-69
2022/03/05 08:59:34;;;;;;;8.13;2.20;;;24.50;99.90;;;;;;4917088;29;20194;-68
2022/03/05 09:02:02;;;;;;;11.07;2.30;;;24.50;99.90;;;;;;4916875;29;20212;-69
2022/03/05 09:04:30;;;;;;;8.97;2.40;;;24.50;99.90;;;;;;4917264;29;20267;-69
2022/03/05 09:06:57;;;;;;;8.47;2.87;;;24.40;99.90;;;;;;4916919;29;20577;-68
2022/03/05 09:09:25;;;;;;;9.17;2.50;;;24.40;99.90;;;;;;4917285;29;20646;-69
2022/03/05 09:11:54;;;;;;;8.77;2.30;;;24.40;99.90;;;;;;4916944;29;20195;-69
2022/03/05 09:14:22;;;;;;;9.23;2.23;;;24.40;99.90;;;;;;4916904;29;20184;-68
2022/03/05 09:16:49;;;;;;;16.57;2.73;;;24.40;99.90;;;;;;4916876;29;20191;-69
2022/03/05 09:19:17;;;;;;;12.80;3.33;;;24.40;99.90;;;;;;4917223;29;20670;-69
2022/03/05 09:21:45;;;;;;;9.50;2.83;;;24.40;99.90;;;;;;4915852;29;20597;-69
2022/03/05 09:24:12;;;;;;;5.00;1.73;;;24.30;99.90;;;;;;4917260;29;20244;-69
2022/03/05 09:26:40;;;;;;;9.30;2.20;;;24.20;99.90;;;;;;4916729;29;20276;-69
2022/03/05 09:29:08;;;;;;;5.60;2.10;;;24.20;99.90;;;;;;4915572;29;20201;-69
2022/03/05 09:31:35;;;;;;;12.90;2.50;;;24.20;99.90;;;;;;4916177;29;20638;-69
2022/03/05 09:34:03;;;;;;;9.03;2.10;;;24.20;99.90;;;;;;4917052;29;20272;-69
2022/03/05 09:36:31;;;;;;;11.20;2.30;;;24.10;99.90;;;;;;4916656;29;20192;-69
2022/03/05 09:38:59;;;;;;;7.00;2.30;;;24.10;99.90;;;;;;4917277;29;20223;-70
2022/03/05 09:41:27;;;;;;;6.47;2.27;;;24.10;99.90;;;;;;4916780;29;21045;-69
2022/03/05 09:43:55;;;;;;;8.50;2.27;;;24.00;99.90;;;;;;4915527;29;20196;-69
2022/03/05 09:46:23;;;;;;;9.80;2.37;;;23.90;99.90;;;;;;4916680;29;20193;-70
2022/03/05 09:48:54;;;;;;;8.87;2.30;;;23.90;99.90;;;;;;4916873;29;20184;-69
2022/03/05 09:51:27;;;;;;;6.70;2.10;;;23.90;99.90;;;;;;4916634;29;20663;-70
2022/03/05 09:53:55;;;;;;;9.97;1.93;;;23.90;99.90;;;;;;4916775;29;20714;-69
2022/03/05 09:56:23;;;;;;;7.50;2.07;;;23.90;99.90;;;;;;4916291;29;20690;-69
2022/03/05 09:58:53;;;;;;;6.73;2.20;;;23.80;99.90;;;;;;4916121;29;20255;-69
2022/03/05 10:01:20;;;;;;;8.40;2.17;;;23.80;99.90;;;;;;4916631;29;20185;-69
2022/03/05 10:03:55;;;;;;;7.93;2.23;;;23.80;99.90;;;;;;4916070;29;20544;-69
2022/03/05 10:06:28;;;;;;;9.20;2.10;;;23.80;99.90;;;;;;4915932;29;20671;-69
2022/03/05 10:08:57;;;;;;;7.40;1.80;;;23.80;99.90;;;;;;4916125;29;20581;-69
2022/03/05 10:11:37;;;;;;;3.33;1.80;;;23.80;99.90;;;;;;4916275;29;20212;-70
2022/03/05 10:14:16;;;;;;;12.53;3.27;;;23.80;99.90;;;;;;4914353;29;20188;-69
2022/03/05 10:16:44;;;;;;;12.97;3.27;;;23.80;99.90;;;;;;4913671;29;20204;-69
2022/03/05 10:19:23;;;;;;;8.40;2.40;;;23.80;99.90;;;;;;4915846;29;20221;-69
2022/03/05 10:22:05;;;;;;;11.07;2.90;;;23.80;99.90;;;;;;4913454;29;20663;-70
2022/03/05 10:24:38;;;;;;;10.23;2.70;;;23.80;99.90;;;;;;4914950;29;20189;-70
2022/03/05 10:27:09;;;;;;;10.67;2.60;;;23.80;99.90;;;;;;4915883;29;20185;-69
2022/03/05 10:29:39;;;;;;;5.67;2.33;;;23.80;99.90;;;;;;4915940;29;20190;-69
2022/03/05 10:32:11;;;;;;;5.50;2.23;;;23.80;99.90;;;;;;4915627;29;20565;-69
2022/03/05 10:34:49;;;;;;;1.90;0.60;;;23.60;99.90;;;;;;4913639;29;20185;-69
2022/03/05 10:37:17;;;;;;;0.33;0.30;;;23.00;99.90;;;;;;4915683;29;20224;-70
2022/03/05 10:39:47;;;;;;;0.40;0.33;;;22.50;99.90;;;;;;4915407;29;20183;-69
2022/03/05 10:42:23;;;;;;;1.37;0.80;;;22.30;99.90;;;;;;4913147;29;20194;-70
2022/03/05 10:45:07;;;;;;;0.40;0.40;;;22.20;99.90;;;;;;4915752;29;20229;-69
2022/03/05 10:47:42;;;;;;;0.93;0.40;;;22.10;99.90;;;;;;4917231;29;20177;-70
2022/03/05 10:50:33;;;;;;;1.33;0.50;;;22.00;99.90;;;;;;4919043;29;20217;-71
2022/03/05 10:53:02;;;;;;;1.83;0.60;;;21.90;99.90;;;;;;4919492;29;20238;-70
2022/03/05 10:55:39;;;;;;;1.17;0.53;;;21.80;99.90;;;;;;4918897;29;20645;-70
2022/03/05 10:58:16;;;;;;;1.63;0.63;;;21.80;99.90;;;;;;4919399;29;20240;-68
2022/03/05 11:00:49;;;;;;;1.37;0.50;;;21.80;99.90;;;;;;4918950;29;20192;-70
2022/03/05 11:03:18;;;;;;;2.37;0.70;;;21.80;99.90;;;;;;4919372;29;20173;-69
2022/03/05 11:05:46;;;;;;;1.33;0.50;;;21.70;99.90;;;;;;4919214;29;20217;-68
2022/03/05 11:08:17;;;;;;;1.87;0.67;;;21.60;99.90;;;;;;4919478;29;20728;-69
2022/03/05 11:10:45;;;;;;;4.67;1.00;;;21.40;99.90;;;;;;4919421;29;20210;-68
2022/03/05 11:13:13;;;;;;;3.67;1.37;;;21.10;99.90;;;;;;4919117;29;20182;-68
2022/03/05 11:15:41;;;;;;;6.17;1.30;;;21.00;99.90;;;;;;4918990;29;20186;-68
2022/03/05 11:18:09;;;;;;;3.97;1.00;;;20.90;99.90;;;;;;4919127;29;20307;-69
2022/03/05 11:20:37;;;;;;;3.37;0.80;;;20.80;99.90;;;;;;4919188;29;20639;-67
2022/03/05 11:23:05;;;;;;;1.70;0.90;;;20.80;99.90;;;;;;4919249;29;20178;-71
2022/03/05 11:25:36;;;;;;;4.83;1.10;;;20.70;99.90;;;;;;4918775;29;20214;-70
2022/03/05 11:28:12;;;;;;;3.07;1.10;;;20.70;99.90;;;;;;4917768;29;20185;-71
2022/03/05 11:30:44;;;;;;;1.80;1.10;;;20.70;99.90;;;;;;4918936;29;20212;-70
2022/03/05 11:33:23;;;;;;;7.87;1.53;;;20.50;99.90;;;;;;4917406;29;20676;-71
2022/03/05 11:35:51;;;;;;;8.60;1.27;;;20.60;99.90;;;;;;4918665;29;20673;-71
2022/03/05 11:38:38;;;;;;;11.93;1.83;;;20.50;99.90;;;;;;4918643;29;20221;-71
2022/03/05 11:41:22;;;;;;;4.83;1.10;;;20.50;99.90;;;;;;4917402;29;20186;-71
2022/03/05 11:43:50;;;;;;;5.80;1.43;;;20.50;99.90;;;;;;4918369;29;20655;-70
2022/03/05 11:46:27;;;;;;;2.50;1.00;;;20.50;99.90;;;;;;4918272;29;20601;-71
2022/03/05 11:49:10;;;;;;;4.53;1.10;;;20.50;99.90;;;;;;4918586;29;20181;-71
2022/03/05 11:51:59;;;;;;;3.57;1.03;;;20.40;99.90;;;;;;4918640;29;20189;-71
2022/03/05 11:54:27;;;;;;;5.10;1.57;;;20.40;99.90;;;;;;4918017;29;20186;-70
2022/03/05 11:57:14;;;;;;;5.37;1.77;;;20.40;99.90;;;;;;4917999;29;20237;-70
2022/03/05 12:00:03;;;;;;;2.63;1.03;;;20.30;99.90;;;;;;4918178;29;20192;-71
2022/03/05 12:02:45;;;;;;;7.33;1.33;;;20.20;99.90;;;;;;4918390;29;20222;-71
2022/03/05 12:05:38;;;;;;;2.37;1.00;;;20.10;99.90;;;;;;4918611;29;20659;-70
2022/03/05 12:08:07;;;;;;;2.73;1.57;;;20.10;99.90;;;;;;4889630;29;20253;-71
2022/03/05 12:10:38;;;;;;;3.37;1.13;;;20.20;99.90;;;;;;4916490;29;20293;-71
2022/03/05 12:13:10;;;;;;;7.30;1.23;;;20.10;99.90;;;;;;4918090;29;20181;-72
2022/03/05 12:15:44;;;;;;;4.23;1.10;;;20.10;99.90;;;;;;4918108;29;20192;-71
2022/03/05 12:18:14;;;;;;;3.10;1.10;;;20.00;99.90;;;;;;4918038;29;20224;-70
2022/03/05 12:20:46;;;;;;;3.43;1.30;;;20.00;99.90;;;;;;4917634;29;20194;-70
2022/03/05 12:23:21;;;;;;;4.97;1.30;;;20.00;99.90;;;;;;4916656;29;20182;-70
2022/03/05 12:25:50;;;;;;;2.60;1.10;;;20.00;99.90;;;;;;4917715;29;20193;-71
2022/03/05 12:28:26;;;;;;;3.63;1.17;;;20.00;99.90;;;;;;4917715;29;20185;-70
2022/03/05 12:30:58;;;;;;;3.33;0.97;;;19.90;99.90;;;;;;4898825;29;20182;-70
2022/03/05 12:33:26;;;;;;;2.13;0.87;;;19.90;99.90;;;;;;4909313;29;20208;-70
2022/03/05 12:35:56;;;;;;;2.50;0.90;;;20.00;99.90;;;;;;4918123;29;20178;-71
2022/03/05 12:38:24;;;;;;;4.47;1.10;;;19.90;99.90;;;;;;4917136;29;20357;-72
2022/03/05 12:40:52;;;;;;;4.20;1.07;;;20.00;99.90;;;;;;4917239;29;20537;-71
2022/03/05 12:43:20;;;;;;;3.30;0.93;;;20.00;99.90;;;;;;4917695;29;20337;-72
2022/03/05 12:45:50;;;;;;;0.97;0.87;;;20.00;99.90;;;;;;4916492;29;20178;-72
2022/03/05 12:48:19;;;;;;;2.93;0.90;;;20.00;99.90;;;;;;4917441;29;20204;-71
2022/03/05 12:50:52;;;;;;;2.33;0.90;;;20.00;99.90;;;;;;4916075;29;20229;-72